sensor_id;sensor_type;location;lat;lon;timestamp;pressure;altitude;pressure_sealevel;temperature;humidity
27705;BME280;15109;50.992;6.918;2023-02-01T00:03:00;101473.97;;;7.07;100.00
27705;BME280;15109;50.992;6.918;2023-02-01T00:06:21;101475.09;;;7.05;100.00
27705;BME280;15109;50.992;6.918;2023-02-01T00:09:42;101484.28;;;6.94;100.00
27705;BME280;15109;50.992;6.918;2023-02-01T00:13:03;101497.59;;;6.97;100.00
27705;BME280;15109;50.992;6.918;2023-02-01T00:16:25;101493.00;;;6.98;100.00
27705;BME280;15109;50.992;6.918;2023-02-01T00:19:46;101491.72;;;7.02;100.00
27705;BME280;15109;50.992;6.918;2023-02-01T00:23:08;101491.53;;;7.03;100.00
27705;BME280;15109;50.992;6.918;2023-02-01T00:26:34;101493.13;;;7.06;100.00
27705;BME280;15109;50.992;6.918;2023-02-01T00:29:55;101487.13;;;7.02;100.00
27705;BME280;15109;50.992;6.918;2023-02-01T00:33:16;101476.25;;;7.02;100.00
27705;BME280;15109;50.992;6.918;2023-02-01T00:36:38;101478.41;;;6.99;100.00
27705;BME280;15109;50.992;6.918;2023-02-01T00:39:59;101476.53;;;6.99;100.00
27705;BME280;15109;50.992;6.918;2023-02-01T00:43:20;101470.84;;;6.93;100.00
27705;BME280;15109;50.992;6.918;2023-02-01T00:46:41;101476.69;;;6.88;100.00
27705;BME280;15109;50.992;6.918;2023-02-01T00:50:02;101484.00;;;6.88;100.00
27705;BME280;15109;50.992;6.918;2023-02-01T00:53:23;101465.25;;;6.84;100.00
27705;BME280;15109;50.992;6.918;2023-02-01T00:56:44;101473.00;;;6.79;100.00
27705;BME280;15109;50.992;6.918;2023-02-01T01:00:05;101470.84;;;6.73;100.00
27705;BME280;15109;50.992;6.918;2023-02-01T01:03:27;101453.09;;;6.69;100.00
27705;BME280;15109;50.992;6.918;2023-02-01T01:06:53;101436.22;;;6.66;100.00
27705;BME280;15109;50.992;6.918;2023-02-01T01:10:15;101423.81;;;6.63;100.00
27705;BME280;15109;50.992;6.918;2023-02-01T01:13:36;101437.66;;;6.60;100.00
27705;BME280;15109;50.992;6.918;2023-02-01T01:16:58;101447.25;;;6.64;100.00
27705;BME280;15109;50.992;6.918;2023-02-01T01:20:18;101462.41;;;6.67;100.00
27705;BME280;15109;50.992;6.918;2023-02-01T01:23:42;101458.13;;;6.64;100.00
27705;BME280;15109;50.992;6.918;2023-02-01T01:27:03;101460.38;;;6.69;100.00
27705;BME280;15109;50.992;6.918;2023-02-01T01:30:24;101476.44;;;6.62;100.00
27705;BME280;15109;50.992;6.918;2023-02-01T01:33:47;101480.56;;;6.57;100.00
27705;BME280;15109;50.992;6.918;2023-02-01T01:37:08;101481.28;;;6.49;100.00
27705;BME280;15109;50.992;6.918;2023-02-01T01:40:30;101482.28;;;6.48;100.00
27705;BME280;15109;50.992;6.918;2023-02-01T01:47:17;101475.84;;;6.49;100.00
27705;BME280;15109;50.992;6.918;2023-02-01T01:50:40;101470.72;;;6.46;100.00
27705;BME280;15109;50.992;6.918;2023-02-01T01:54:37;101460.09;;;6.43;100.00
27705;BME280;15109;50.992;6.918;2023-02-01T01:57:51;101463.41;;;6.37;100.00
27705;BME280;15109;50.992;6.918;2023-02-01T02:01:15;101463.25;;;6.38;100.00
27705;BME280;15109;50.992;6.918;2023-02-01T02:04:37;101454.09;;;6.39;100.00
27705;BME280;15109;50.992;6.918;2023-02-01T02:07:59;101439.41;;;6.42;100.00
27705;BME280;15109;50.992;6.918;2023-02-01T02:11:21;101445.81;;;6.41;100.00
27705;BME280;15109;50.992;6.918;2023-02-01T02:14:42;101448.53;;;6.41;100.00
27705;BME280;15109;50.992;6.918;2023-02-01T02:18:05;101442.38;;;6.39;100.00
27705;BME280;15109;50.992;6.918;2023-02-01T02:46:44;101433.50;;;6.56;100.00
27705;BME280;15109;50.992;6.918;2023-02-01T02:50:33;101424.78;;;6.53;100.00
27705;BME280;15109;50.992;6.918;2023-02-01T02:54:16;101423.66;;;6.55;100.00
27705;BME280;15109;50.992;6.918;2023-02-01T02:57:57;101419.09;;;6.56;100.00
27705;BME280;15109;50.992;6.918;2023-02-01T03:01:38;101409.34;;;6.53;100.00
27705;BME280;15109;50.992;6.918;2023-02-01T03:05:19;101409.22;;;6.55;100.00
27705;BME280;15109;50.992;6.918;2023-02-01T03:08:41;101415.91;;;6.60;100.00
27705;BME280;15109;50.992;6.918;2023-02-01T03:12:08;101405.91;;;6.61;100.00
27705;BME280;15109;50.992;6.918;2023-02-01T03:15:56;101404.06;;;6.61;100.00
27705;BME280;15109;50.992;6.918;2023-02-01T03:19:22;101395.78;;;6.63;100.00
27705;BME280;15109;50.992;6.918;2023-02-01T03:22:44;101405.34;;;6.67;100.00
27705;BME280;15109;50.992;6.918;2023-02-01T03:26:09;101411.34;;;6.70;100.00
27705;BME280;15109;50.992;6.918;2023-02-01T03:29:37;101408.63;;;6.70;100.00
27705;BME280;15109;50.992;6.918;2023-02-01T03:33:01;101412.19;;;6.71;100.00
27705;BME280;15109;50.992;6.918;2023-02-01T03:36:26;101408.91;;;6.67;100.00
27705;BME280;15109;50.992;6.918;2023-02-01T03:39:53;101407.94;;;6.68;100.00
27705;BME280;15109;50.992;6.918;2023-02-01T03:43:17;101407.94;;;6.68;100.00
27705;BME280;15109;50.992;6.918;2023-02-01T03:47:23;101400.03;;;6.65;100.00
27705;BME280;15109;50.992;6.918;2023-02-01T03:50:24;101392.06;;;6.64;100.00
27705;BME280;15109;50.992;6.918;2023-02-01T03:53:47;101382.19;;;6.63;100.00
27705;BME280;15109;50.992;6.918;2023-02-01T03:57:12;101378.75;;;6.61;100.00
27705;BME280;15109;50.992;6.918;2023-02-01T04:00:35;101381.47;;;6.61;100.00
27705;BME280;15109;50.992;6.918;2023-02-01T04:03:58;101400.47;;;6.61;100.00
27705;BME280;15109;50.992;6.918;2023-02-01T04:07:20;101402.06;;;6.63;100.00
27705;BME280;15109;50.992;6.918;2023-02-01T04:10:41;101395.03;;;6.61;100.00
27705;BME280;15109;50.992;6.918;2023-02-01T04:14:06;101401.75;;;6.66;100.00
27705;BME280;15109;50.992;6.918;2023-02-01T04:17:27;101399.91;;;6.67;100.00
27705;BME280;15109;50.992;6.918;2023-02-01T04:20:48;101396.47;;;6.65;100.00
27705;BME280;15109;50.992;6.918;2023-02-01T04:24:10;101391.19;;;6.63;100.00
27705;BME280;15109;50.992;6.918;2023-02-01T04:27:31;101401.34;;;6.61;100.00
27705;BME280;15109;50.992;6.918;2023-02-01T04:30:53;101393.75;;;6.65;100.00
27705;BME280;15109;50.992;6.918;2023-02-01T04:34:17;101384.03;;;6.62;100.00
27705;BME280;15109;50.992;6.918;2023-02-01T04:37:38;101377.06;;;6.60;100.00
27705;BME280;15109;50.992;6.918;2023-02-01T04:40:59;101371.75;;;6.58;100.00
27705;BME280;15109;50.992;6.918;2023-02-01T04:44:20;101380.75;;;6.49;100.00
27705;BME280;15109;50.992;6.918;2023-02-01T04:47:43;101362.31;;;6.43;100.00
27705;BME280;15109;50.992;6.918;2023-02-01T04:51:04;101353.03;;;6.36;100.00
27705;BME280;15109;50.992;6.918;2023-02-01T04:54:28;101349.31;;;6.27;100.00
27705;BME280;15109;50.992;6.918;2023-02-01T04:57:50;101356.19;;;6.22;100.00
27705;BME280;15109;50.992;6.918;2023-02-01T05:01:12;101349.19;;;6.19;100.00
27705;BME280;15109;50.992;6.918;2023-02-01T05:04:33;101343.03;;;6.17;100.00
27705;BME280;15109;50.992;6.918;2023-02-01T05:07:54;101365.19;;;6.13;100.00
27705;BME280;15109;50.992;6.918;2023-02-01T05:11:15;101372.31;;;6.14;100.00
27705;BME280;15109;50.992;6.918;2023-02-01T05:14:57;101364.34;;;6.12;100.00
27705;BME280;15109;50.992;6.918;2023-02-01T05:18:18;101376.34;;;6.10;100.00
27705;BME280;15109;50.992;6.918;2023-02-01T05:21:39;101388.34;;;6.07;100.00
27705;BME280;15109;50.992;6.918;2023-02-01T05:25:01;101379.34;;;6.07;100.00
27705;BME280;15109;50.992;6.918;2023-02-01T05:28:22;101375.03;;;6.04;100.00
27705;BME280;15109;50.992;6.918;2023-02-01T05:31:46;101372.31;;;6.04;100.00
27705;BME280;15109;50.992;6.918;2023-02-01T05:35:08;101366.31;;;6.01;100.00
27705;BME280;15109;50.992;6.918;2023-02-01T05:38:30;101374.75;;;5.98;100.00
27705;BME280;15109;50.992;6.918;2023-02-01T05:41:56;101384.06;;;5.95;100.00
27705;BME280;15109;50.992;6.918;2023-02-01T05:45:18;101382.47;;;5.92;100.00
27705;BME280;15109;50.992;6.918;2023-02-01T05:48:39;101377.31;;;5.89;100.00
27705;BME280;15109;50.992;6.918;2023-02-01T05:52:01;101366.34;;;5.91;100.00
27705;BME280;15109;50.992;6.918;2023-02-01T05:55:22;101378.00;;;5.91;100.00
27705;BME280;15109;50.992;6.918;2023-02-01T05:58:43;101367.31;;;5.90;100.00
27705;BME280;15109;50.992;6.918;2023-02-01T06:02:04;101380.91;;;5.90;100.00
27705;BME280;15109;50.992;6.918;2023-02-01T06:05:25;101376.59;;;5.87;100.00
27705;BME280;15109;50.992;6.918;2023-02-01T06:08:46;101379.56;;;5.84;100.00
27705;BME280;15109;50.992;6.918;2023-02-01T06:12:07;101383.03;;;5.86;100.00
27705;BME280;15109;50.992;6.918;2023-02-01T06:15:28;101368.69;;;5.84;100.00
27705;BME280;15109;50.992;6.918;2023-02-01T06:18:49;101372.56;;;5.82;100.00
27705;BME280;15109;50.992;6.918;2023-02-01T06:22:11;101379.84;;;5.81;100.00
27705;BME280;15109;50.992;6.918;2023-02-01T06:25:32;101378.00;;;5.82;100.00
27705;BME280;15109;50.992;6.918;2023-02-01T06:28:53;101387.00;;;5.82;100.00
27705;BME280;15109;50.992;6.918;2023-02-01T06:32:16;101389.72;;;5.82;100.00
27705;BME280;15109;50.992;6.918;2023-02-01T06:35:38;101394.84;;;5.85;100.00
27705;BME280;15109;50.992;6.918;2023-02-01T06:38:59;101396.31;;;5.89;100.00
27705;BME280;15109;50.992;6.918;2023-02-01T06:42:20;101391.16;;;5.96;100.00
27705;BME280;15109;50.992;6.918;2023-02-01T06:45:41;101399.75;;;6.01;100.00
27705;BME280;15109;50.992;6.918;2023-02-01T06:49:04;101404.75;;;6.06;100.00
27705;BME280;15109;50.992;6.918;2023-02-01T06:52:28;101406.34;;;6.08;100.00
27705;BME280;15109;50.992;6.918;2023-02-01T06:55:56;101416.34;;;6.08;100.00
27705;BME280;15109;50.992;6.918;2023-02-01T06:59:18;101413.22;;;6.12;100.00
27705;BME280;15109;50.992;6.918;2023-02-01T07:02:38;101405.19;;;6.11;100.00
27705;BME280;15109;50.992;6.918;2023-02-01T07:05:59;101412.19;;;6.13;100.00
27705;BME280;15109;50.992;6.918;2023-02-01T07:09:21;101409.63;;;6.12;100.00
27705;BME280;15109;50.992;6.918;2023-02-01T07:12:41;101411.19;;;6.14;100.00
27705;BME280;15109;50.992;6.918;2023-02-01T07:16:03;101410.34;;;6.14;100.00
27705;BME280;15109;50.992;6.918;2023-02-01T07:19:25;101420.06;;;6.16;100.00
27705;BME280;15109;50.992;6.918;2023-02-01T07:22:46;101429.34;;;6.14;100.00
27705;BME280;15109;50.992;6.918;2023-02-01T07:26:09;101439.63;;;6.10;100.00
27705;BME280;15109;50.992;6.918;2023-02-01T07:29:30;101444.06;;;6.11;100.00
27705;BME280;15109;50.992;6.918;2023-02-01T07:32:51;101433.91;;;6.13;100.00
27705;BME280;15109;50.992;6.918;2023-02-01T07:36:12;101446.22;;;6.17;100.00
27705;BME280;15109;50.992;6.918;2023-02-01T07:39:33;101445.78;;;6.22;100.00
27705;BME280;15109;50.992;6.918;2023-02-01T07:42:55;101455.78;;;6.21;100.00
27705;BME280;15109;50.992;6.918;2023-02-01T07:46:16;101436.94;;;6.20;100.00
27705;BME280;15109;50.992;6.918;2023-02-01T07:49:37;101437.81;;;6.20;100.00
27705;BME280;15109;50.992;6.918;2023-02-01T07:52:58;101434.22;;;6.20;100.00
27705;BME280;15109;50.992;6.918;2023-02-01T07:56:21;101433.78;;;6.15;100.00
27705;BME280;15109;50.992;6.918;2023-02-01T07:59:45;101436.50;;;6.15;100.00
27705;BME280;15109;50.992;6.918;2023-02-01T08:03:33;101440.94;;;6.16;100.00
27705;BME280;15109;50.992;6.918;2023-02-01T08:06:55;101454.34;;;6.17;100.00
27705;BME280;15109;50.992;6.918;2023-02-01T08:10:16;101452.38;;;6.19;100.00
27705;BME280;15109;50.992;6.918;2023-02-01T08:13:37;101457.66;;;6.21;100.00
27705;BME280;15109;50.992;6.918;2023-02-01T08:16:58;101458.78;;;6.18;100.00
27705;BME280;15109;50.992;6.918;2023-02-01T08:20:19;101455.22;;;6.18;100.00
27705;BME280;15109;50.992;6.918;2023-02-01T08:23:42;101449.53;;;6.21;100.00
27705;BME280;15109;50.992;6.918;2023-02-01T08:27:03;101456.09;;;6.28;100.00
27705;BME280;15109;50.992;6.918;2023-02-01T08:30:24;101445.53;;;6.25;100.00
27705;BME280;15109;50.992;6.918;2023-02-01T08:33:53;101452.81;;;6.24;100.00
27705;BME280;15109;50.992;6.918;2023-02-01T08:37:14;101463.38;;;6.27;100.00
27705;BME280;15109;50.992;6.918;2023-02-01T08:40:38;101470.38;;;6.30;100.00
27705;BME280;15109;50.992;6.918;2023-02-01T08:44:02;101479.13;;;6.33;100.00
27705;BME280;15109;50.992;6.918;2023-02-01T08:47:22;101479.69;;;6.37;100.00
27705;BME280;15109;50.992;6.918;2023-02-01T08:50:44;101471.81;;;6.44;100.00
27705;BME280;15109;50.992;6.918;2023-02-01T08:54:05;101485.72;;;6.50;100.00
27705;BME280;15109;50.992;6.918;2023-02-01T08:57:26;101490.16;;;6.51;100.00
27705;BME280;15109;50.992;6.918;2023-02-01T09:00:48;101494.44;;;6.63;100.00
27705;BME280;15109;50.992;6.918;2023-02-01T09:04:09;101492.31;;;6.67;100.00
27705;BME280;15109;50.992;6.918;2023-02-01T09:07:32;101487.72;;;6.67;100.00
27705;BME280;15109;50.992;6.918;2023-02-01T09:10:53;101492.59;;;6.64;100.00
27705;BME280;15109;50.992;6.918;2023-02-01T09:14:18;101472.28;;;6.68;100.00
27705;BME280;15109;50.992;6.918;2023-02-01T09:17:39;101480.16;;;6.80;100.00
27705;BME280;15109;50.992;6.918;2023-02-01T09:21:05;101473.53;;;6.73;100.00
27705;BME280;15109;50.992;6.918;2023-02-01T09:24:28;101482.88;;;6.80;100.00
27705;BME280;15109;50.992;6.918;2023-02-01T09:27:48;101467.41;;;6.81;100.00
27705;BME280;15109;50.992;6.918;2023-02-01T09:31:10;101476.00;;;6.76;100.00
27705;BME280;15109;50.992;6.918;2023-02-01T09:34:30;101474.97;;;6.77;100.00
27705;BME280;15109;50.992;6.918;2023-02-01T09:37:52;101479.97;;;6.82;100.00
27705;BME280;15109;50.992;6.918;2023-02-01T09:45:06;101482.28;;;6.87;100.00
27705;BME280;15109;50.992;6.918;2023-02-01T09:48:34;101479.69;;;6.95;100.00
27705;BME280;15109;50.992;6.918;2023-02-01T09:51:59;101469.78;;;7.03;100.00
27705;BME280;15109;50.992;6.918;2023-02-01T09:55:27;101478.81;;;7.04;100.00
27705;BME280;15109;50.992;6.918;2023-02-01T09:58:52;101473.97;;;7.07;100.00
27705;BME280;15109;50.992;6.918;2023-02-01T10:02:18;101471.81;;;7.01;100.00
27705;BME280;15109;50.992;6.918;2023-02-01T10:16:42;101474.78;;;7.17;100.00
27705;BME280;15109;50.992;6.918;2023-02-01T10:24:28;101460.00;;;7.39;100.00
27705;BME280;15109;50.992;6.918;2023-02-01T10:27:22;101446.66;;;7.46;100.00
27705;BME280;15109;50.992;6.918;2023-02-01T10:30:44;101445.78;;;7.55;100.00
27705;BME280;15109;50.992;6.918;2023-02-01T10:34:22;101448.75;;;7.61;100.00
27705;BME280;15109;50.992;6.918;2023-02-01T10:37:45;101465.47;;;7.66;100.00
27705;BME280;15109;50.992;6.918;2023-02-01T10:41:15;101462.66;;;7.86;100.00
27705;BME280;15109;50.992;6.918;2023-02-01T10:44:36;101443.09;;;8.00;100.00
27705;BME280;15109;50.992;6.918;2023-02-01T10:48:03;101447.31;;;8.12;100.00
27705;BME280;15109;50.992;6.918;2023-02-01T10:51:30;101432.84;;;8.11;100.00
27705;BME280;15109;50.992;6.918;2023-02-01T10:54:52;101436.22;;;8.23;100.00
27705;BME280;15109;50.992;6.918;2023-02-01T10:58:30;101429.38;;;8.19;100.00
27705;BME280;15109;50.992;6.918;2023-02-01T11:01:58;101435.34;;;8.23;100.00
27705;BME280;15109;50.992;6.918;2023-02-01T11:05:20;101426.72;;;8.27;100.00
27705;BME280;15109;50.992;6.918;2023-02-01T11:08:47;101444.22;;;8.25;100.00
27705;BME280;15109;50.992;6.918;2023-02-01T11:15:54;101437.41;;;7.93;100.00
27705;BME280;15109;50.992;6.918;2023-02-01T11:19:16;101428.13;;;7.86;100.00
27705;BME280;15109;50.992;6.918;2023-02-01T11:22:37;101424.53;;;7.86;100.00
27705;BME280;15109;50.992;6.918;2023-02-01T11:26:00;101420.56;;;7.80;100.00
27705;BME280;15109;50.992;6.918;2023-02-01T11:29:22;101413.59;;;7.95;100.00
27705;BME280;15109;50.992;6.918;2023-02-01T11:32:50;101418.53;;;8.09;100.00
27705;BME280;15109;50.992;6.918;2023-02-01T11:36:18;101403.50;;;8.05;100.00
27705;BME280;15109;50.992;6.918;2023-02-01T11:39:41;101399.78;;;8.06;100.00
27705;BME280;15109;50.992;6.918;2023-02-01T11:46:36;101402.59;;;8.14;100.00
27705;BME280;15109;50.992;6.918;2023-02-01T11:49:59;101397.59;;;8.10;100.00
27705;BME280;15109;50.992;6.918;2023-02-01T12:42:37;101362.94;;;8.20;100.00
27705;BME280;15109;50.992;6.918;2023-02-01T12:46:02;101358.91;;;8.24;100.00
27705;BME280;15109;50.992;6.918;2023-02-01T12:49:30;101344.91;;;8.19;100.00
27705;BME280;15109;50.992;6.918;2023-02-01T12:52:54;101334.97;;;8.10;100.00
27705;BME280;15109;50.992;6.918;2023-02-01T12:56:30;101327.66;;;8.10;100.00
27705;BME280;15109;50.992;6.918;2023-02-01T13:06:41;101303.06;;;8.02;100.00
27705;BME280;15109;50.992;6.918;2023-02-01T13:13:46;101310.06;;;8.05;100.00
27705;BME280;15109;50.992;6.918;2023-02-01T13:17:16;101293.38;;;8.08;100.00
27705;BME280;15109;50.992;6.918;2023-02-01T13:20:55;101296.66;;;8.11;100.00
27705;BME280;15109;50.992;6.918;2023-02-01T13:24:26;101291.38;;;8.10;100.00
27705;BME280;15109;50.992;6.918;2023-02-01T13:27:49;101288.94;;;8.07;100.00
27705;BME280;15109;50.992;6.918;2023-02-01T13:42:17;101284.34;;;8.07;100.00
27705;BME280;15109;50.992;6.918;2023-02-01T13:45:14;101289.19;;;8.13;100.00
27705;BME280;15109;50.992;6.918;2023-02-01T13:48:39;101282.19;;;8.11;100.00
27705;BME280;15109;50.992;6.918;2023-02-01T13:52:02;101289.19;;;8.13;100.00
27705;BME280;15109;50.992;6.918;2023-02-01T13:58:46;101278.50;;;8.20;100.00
27705;BME280;15109;50.992;6.918;2023-02-01T14:09:14;101275.09;;;8.18;100.00
27705;BME280;15109;50.992;6.918;2023-02-01T14:12:42;101276.63;;;8.20;100.00
27705;BME280;15109;50.992;6.918;2023-02-01T14:19:32;101282.63;;;8.24;100.00
27705;BME280;15109;50.992;6.918;2023-02-01T14:23:04;101287.59;;;8.29;100.00
27705;BME280;15109;50.992;6.918;2023-02-01T14:30:01;101284.88;;;8.29;100.00
27705;BME280;15109;50.992;6.918;2023-02-01T14:33:23;101296.38;;;8.32;100.00
27705;BME280;15109;50.992;6.918;2023-02-01T14:43:48;101301.34;;;8.37;100.00
27705;BME280;15109;50.992;6.918;2023-02-01T14:47:26;101297.59;;;8.38;100.00
27705;BME280;15109;50.992;6.918;2023-02-01T14:50:47;101314.13;;;8.36;100.00
27705;BME280;15109;50.992;6.918;2023-02-01T14:54:11;101310.34;;;8.37;100.00
27705;BME280;15109;50.992;6.918;2023-02-01T14:57:34;101311.53;;;8.35;100.00
27705;BME280;15109;50.992;6.918;2023-02-01T15:00:59;101317.38;;;8.40;100.00
27705;BME280;15109;50.992;6.918;2023-02-01T15:04:20;101316.38;;;8.41;100.00
27705;BME280;15109;50.992;6.918;2023-02-01T15:07:42;101318.72;;;8.36;100.00
27705;BME280;15109;50.992;6.918;2023-02-01T15:11:10;101310.34;;;8.37;100.00
27705;BME280;15109;50.992;6.918;2023-02-01T15:14:35;101316.84;;;8.36;100.00
27705;BME280;15109;50.992;6.918;2023-02-01T15:17:58;101306.22;;;8.33;100.00
27705;BME280;15109;50.992;6.918;2023-02-01T15:21:23;101322.44;;;8.35;100.00
27705;BME280;15109;50.992;6.918;2023-02-01T15:24:51;101330.75;;;8.33;100.00
27705;BME280;15109;50.992;6.918;2023-02-01T15:28:13;101337.06;;;8.34;100.00
27705;BME280;15109;50.992;6.918;2023-02-01T15:31:43;101327.56;;;8.38;100.00
27705;BME280;15109;50.992;6.918;2023-02-01T15:35:05;101342.38;;;8.35;100.00
27705;BME280;15109;50.992;6.918;2023-02-01T15:41:49;101333.72;;;8.40;100.00
27705;BME280;15109;50.992;6.918;2023-02-01T15:45:18;101335.44;;;8.41;100.00
27705;BME280;15109;50.992;6.918;2023-02-01T15:48:42;101331.16;;;8.38;100.00
27705;BME280;15109;50.992;6.918;2023-02-01T15:52:08;101329.28;;;8.39;100.00
27705;BME280;15109;50.992;6.918;2023-02-01T15:55:41;101321.25;;;8.37;100.00
27705;BME280;15109;50.992;6.918;2023-02-01T15:59:04;101319.94;;;8.41;100.00
27705;BME280;15109;50.992;6.918;2023-02-01T16:02:43;101332.88;;;8.39;100.00
27705;BME280;15109;50.992;6.918;2023-02-01T16:06:12;101334.72;;;8.39;100.00
27705;BME280;15109;50.992;6.918;2023-02-01T16:09:54;101330.84;;;8.41;100.00
27705;BME280;15109;50.992;6.918;2023-02-01T16:13:16;101346.34;;;8.41;100.00
27705;BME280;15109;50.992;6.918;2023-02-01T16:16:38;101355.53;;;8.40;100.00
27705;BME280;15109;50.992;6.918;2023-02-01T16:19:59;101363.69;;;8.40;100.00
27705;BME280;15109;50.992;6.918;2023-02-01T16:23:19;101357.25;;;8.41;100.00
27705;BME280;15109;50.992;6.918;2023-02-01T16:26:41;101371.72;;;8.41;100.00
27705;BME280;15109;50.992;6.918;2023-02-01T16:30:01;101352.56;;;8.33;100.00
27705;BME280;15109;50.992;6.918;2023-02-01T16:33:23;101355.34;;;8.24;100.00
27705;BME280;15109;50.992;6.918;2023-02-01T16:36:46;101347.47;;;8.20;100.00
27705;BME280;15109;50.992;6.918;2023-02-01T16:40:14;101359.06;;;8.23;100.00
27705;BME280;15109;50.992;6.918;2023-02-01T16:43:36;101356.34;;;8.23;100.00
27705;BME280;15109;50.992;6.918;2023-02-01T16:46:58;101366.72;;;8.19;100.00
27705;BME280;15109;50.992;6.918;2023-02-01T16:50:23;101364.44;;;8.14;100.00
27705;BME280;15109;50.992;6.918;2023-02-01T16:53:44;101373.78;;;8.12;100.00
27705;BME280;15109;50.992;6.918;2023-02-01T16:57:10;101376.66;;;8.10;100.00
27705;BME280;15109;50.992;6.918;2023-02-01T17:00:31;101375.63;;;8.11;100.00
27705;BME280;15109;50.992;6.918;2023-02-01T17:03:57;101395.34;;;8.05;100.00
27705;BME280;15109;50.992;6.918;2023-02-01T17:07:18;101392.94;;;8.02;100.00
27705;BME280;15109;50.992;6.918;2023-02-01T17:10:40;101391.03;;;8.03;100.00
27705;BME280;15109;50.992;6.918;2023-02-01T17:14:09;101383.03;;;8.01;100.00
27705;BME280;15109;50.992;6.918;2023-02-01T17:17:35;101400.69;;;7.97;100.00
27705;BME280;15109;50.992;6.918;2023-02-01T17:20:57;101393.38;;;7.98;100.00
27705;BME280;15109;50.992;6.918;2023-02-01T17:24:20;101392.34;;;7.99;100.00
27705;BME280;15109;50.992;6.918;2023-02-01T17:27:43;101404.81;;;8.01;100.00
27705;BME280;15109;50.992;6.918;2023-02-01T17:31:05;101402.97;;;8.02;100.00
27705;BME280;15109;50.992;6.918;2023-02-01T17:34:25;101408.69;;;7.99;100.00
27705;BME280;15109;50.992;6.918;2023-02-01T17:37:47;101415.84;;;8.00;100.00
27705;BME280;15109;50.992;6.918;2023-02-01T17:41:09;101410.88;;;7.95;100.00
27705;BME280;15109;50.992;6.918;2023-02-01T17:44:30;101411.88;;;7.94;100.00
27705;BME280;15109;50.992;6.918;2023-02-01T17:47:51;101413.50;;;7.87;100.00
27705;BME280;15109;50.992;6.918;2023-02-01T17:51:21;101425.13;;;7.89;100.00
27705;BME280;15109;50.992;6.918;2023-02-01T17:54:44;101418.41;;;7.84;100.00
27705;BME280;15109;50.992;6.918;2023-02-01T17:58:13;101420.97;;;7.85;100.00
27705;BME280;15109;50.992;6.918;2023-02-01T18:01:36;101416.69;;;7.83;100.00
27705;BME280;15109;50.992;6.918;2023-02-01T18:05:04;101425.84;;;7.82;100.00
27705;BME280;15109;50.992;6.918;2023-02-01T18:08:29;101420.41;;;7.82;100.00
27705;BME280;15109;50.992;6.918;2023-02-01T18:11:52;101422.25;;;7.81;100.00
27705;BME280;15109;50.992;6.918;2023-02-01T18:15:19;101429.44;;;7.82;100.00
27705;BME280;15109;50.992;6.918;2023-02-01T18:18:41;101422.25;;;7.81;100.00
27705;BME280;15109;50.992;6.918;2023-02-01T18:22:02;101426.16;;;7.79;100.00
27705;BME280;15109;50.992;6.918;2023-02-01T18:25:26;101418.84;;;7.79;100.00
27705;BME280;15109;50.992;6.918;2023-02-01T18:28:47;101412.69;;;7.77;100.00
27705;BME280;15109;50.992;6.918;2023-02-01T18:32:08;101416.44;;;7.76;100.00
27705;BME280;15109;50.992;6.918;2023-02-01T18:35:30;101417.84;;;7.80;100.00
27705;BME280;15109;50.992;6.918;2023-02-01T18:38:52;101423.84;;;7.84;100.00
27705;BME280;15109;50.992;6.918;2023-02-01T18:42:17;101417.53;;;7.83;100.00
27705;BME280;15109;50.992;6.918;2023-02-01T18:45:39;101419.81;;;7.88;100.00
27705;BME280;15109;50.992;6.918;2023-02-01T18:49:00;101424.41;;;7.87;100.00
27705;BME280;15109;50.992;6.918;2023-02-01T18:52:21;101426.13;;;7.88;100.00
27705;BME280;15109;50.992;6.918;2023-02-01T18:55:45;101407.59;;;7.92;100.00
27705;BME280;15109;50.992;6.918;2023-02-01T18:59:07;101415.78;;;7.92;100.00
27705;BME280;15109;50.992;6.918;2023-02-01T19:02:28;101402.31;;;7.90;100.00
27705;BME280;15109;50.992;6.918;2023-02-01T19:05:49;101416.94;;;7.89;100.00
27705;BME280;15109;50.992;6.918;2023-02-01T19:09:10;101404.75;;;7.93;100.00
27705;BME280;15109;50.992;6.918;2023-02-01T19:12:32;101412.59;;;7.96;100.00
27705;BME280;15109;50.992;6.918;2023-02-01T19:15:53;101408.00;;;7.97;100.00
27705;BME280;15109;50.992;6.918;2023-02-01T19:19:14;101408.41;;;8.02;100.00
27705;BME280;15109;50.992;6.918;2023-02-01T19:22:35;101409.41;;;8.01;100.00
27705;BME280;15109;50.992;6.918;2023-02-01T19:25:57;101413.84;;;8.02;100.00
27705;BME280;15109;50.992;6.918;2023-02-01T19:29:18;101406.69;;;8.01;100.00
27705;BME280;15109;50.992;6.918;2023-02-01T19:32:39;101408.25;;;8.03;100.00
27705;BME280;15109;50.992;6.918;2023-02-01T19:36:01;101406.22;;;8.05;100.00
27705;BME280;15109;50.992;6.918;2023-02-01T19:39:24;101401.66;;;8.06;100.00
27705;BME280;15109;50.992;6.918;2023-02-01T19:42:46;101394.34;;;8.06;100.00
27705;BME280;15109;50.992;6.918;2023-02-01T19:46:07;101404.38;;;8.06;100.00
27705;BME280;15109;50.992;6.918;2023-02-01T19:49:28;101400.78;;;8.05;100.00
27705;BME280;15109;50.992;6.918;2023-02-01T19:52:51;101409.81;;;8.06;100.00
27705;BME280;15109;50.992;6.918;2023-02-01T19:56:12;101406.22;;;8.05;100.00
27705;BME280;15109;50.992;6.918;2023-02-01T19:59:33;101402.50;;;8.06;100.00
27705;BME280;15109;50.992;6.918;2023-02-01T20:02:54;101405.78;;;8.10;100.00
27705;BME280;15109;50.992;6.918;2023-02-01T20:06:15;101396.59;;;8.11;100.00
27705;BME280;15109;50.992;6.918;2023-02-01T20:09:38;101398.59;;;8.09;100.00
27705;BME280;15109;50.992;6.918;2023-02-01T20:13:01;101398.28;;;8.12;100.00
27705;BME280;15109;50.992;6.918;2023-02-01T20:16:22;101408.19;;;8.13;100.00
27705;BME280;15109;50.992;6.918;2023-02-01T20:19:45;101397.13;;;8.14;100.00